Time;durP1;ratioP1;P1;durP2;ratioP2;P2;SDS_P1;SDS_P2;PMS_P1;PMS_P2;Temp;Humidity;BMP_temperature;BMP_pressure;BME280_temperature;BME280_humidity;BME280_pressure;Samples;Min_cycle;Max_cycle;Signal;HPM_P1;HPM_P2
2023/02/11 00:00:32;;;;;;;52.97;26.30;;;;;;;-3.92;100.00;102516.50;4996065;28;20042;-73
2023/02/11 00:02:58;;;;;;;51.60;25.88;;;;;;;-4.40;100.00;102425.00;4994081;28;20487;-75
2023/02/11 00:05:23;;;;;;;46.00;22.08;;;;;;;-3.68;100.00;102566.59;5000876;28;20066;-77
2023/02/11 00:07:49;;;;;;;49.67;27.90;;;;;;;-3.89;100.00;102527.94;4994357;28;20060;-74
2023/02/11 00:10:14;;;;;;;47.85;24.73;;;;;;;-3.99;100.00;102555.16;5004079;28;20060;-74
2023/02/11 00:12:41;;;;;;;52.80;23.70;;;;;;;-4.56;100.00;102417.53;5003353;28;20486;-74
2023/02/11 00:15:08;;;;;;;53.25;23.75;;;;;;;-4.62;100.00;102401.59;4992254;28;20116;-74
2023/02/11 00:17:33;;;;;;;42.92;25.27;;;;;;;-4.16;100.00;102492.09;4993542;28;20043;-74
2023/02/11 00:19:58;;;;;;;53.03;28.75;;;;;;;-3.84;100.00;102570.31;5002655;28;20525;-73
2023/02/11 00:22:24;;;;;;;43.92;23.77;;;;;;;-3.83;100.00;102541.34;5004387;28;20472;-76
2023/02/11 00:24:49;;;;;;;45.40;22.60;;;;;;;-3.79;100.00;102544.19;5005363;28;20050;-76
2023/02/11 00:27:15;;;;;;;45.78;28.17;;;;;;;-4.00;100.00;102548.22;4999397;28;20053;-76
2023/02/11 00:29:40;;;;;;;52.55;26.60;;;;;;;-3.99;100.00;102540.69;4998952;28;20456;-76
2023/02/11 00:32:07;;;;;;;43.92;26.30;;;;;;;-3.86;100.00;102553.88;4996972;28;20104;-75
2023/02/11 00:34:34;;;;;;;38.85;22.35;;;;;;;-4.00;100.00;102540.53;4995034;28;20078;-77
2023/02/11 00:36:59;;;;;;;46.95;26.23;;;;;;;-3.89;100.00;102545.00;5000960;28;20054;-74
2023/02/11 00:39:25;;;;;;;45.63;22.88;;;;;;;-4.76;100.00;102404.53;5004268;28;20050;-74
2023/02/11 00:41:50;;;;;;;48.65;26.33;;;;;;;-4.65;100.00;102388.50;5004058;28;20132;-75
2023/02/11 00:44:16;;;;;;;43.28;25.90;;;;;;;-3.77;100.00;102546.16;4994293;28;20495;-73
2023/02/11 00:46:41;;;;;;;48.72;25.52;;;;;;;-4.54;100.00;102421.16;4996491;28;20193;-74
2023/02/11 00:49:07;;;;;;;49.50;26.65;;;;;;;-4.52;100.00;102470.88;4991716;28;20498;-76
2023/02/11 00:51:32;;;;;;;41.38;23.38;;;;;;;-3.89;100.00;102566.41;4997883;28;20680;-73
2023/02/11 00:53:58;;;;;;;46.63;24.38;;;;;;;-4.64;100.00;102405.66;5005048;28;20044;-74
2023/02/11 00:56:23;;;;;;;58.35;26.25;;;;;;;-4.89;100.00;102405.06;5005181;28;20064;-76
2023/02/11 00:58:49;;;;;;;44.83;26.67;;;;;;;-4.81;100.00;102392.97;5000093;28;20050;-77
2023/02/11 01:01:15;;;;;;;49.92;25.10;;;;;;;-4.77;100.00;102415.53;5009575;28;20050;-76
2023/02/11 01:03:40;;;;;;;48.63;27.15;;;;;;;-4.71;100.00;102432.34;4994011;28;20108;-74
2023/02/11 01:06:07;;;;;;;44.78;26.63;;;;;;;-4.24;100.00;102481.09;5013106;28;20029;-75
2023/02/11 01:08:33;;;;;;;52.30;26.58;;;;;;;-4.13;100.00;102507.75;5002429;28;20037;-75
2023/02/11 01:11:02;;;;;;;57.15;27.85;;;;;;;-4.85;100.00;102388.31;5013119;28;20066;-75
2023/02/11 01:13:30;;;;;;;39.85;24.33;;;;;;;-4.86;100.00;102381.38;4999634;28;20045;-75
2023/02/11 01:15:56;;;;;;;54.97;27.25;;;;;;;-4.18;100.00;102514.09;5004033;28;20038;-76
2023/02/11 01:18:22;;;;;;;43.75;23.92;;;;;;;-4.87;100.00;102395.81;5006346;28;20064;-74
2023/02/11 01:20:49;;;;;;;45.92;25.30;;;;;;;-4.23;100.00;102540.97;5006507;28;20037;-73
2023/02/11 01:23:15;;;;;;;66.68;28.83;;;;;;;-4.02;100.00;102542.97;5004752;28;20046;-75
2023/02/11 01:25:40;;;;;;;51.08;27.58;;;;;;;-4.98;100.00;102388.81;5006382;28;20113;-74
2023/02/11 01:28:06;;;;;;;47.63;24.55;;;;;;;-4.96;100.00;102407.78;5000142;28;20419;-76
2023/02/11 01:30:33;;;;;;;40.35;22.00;;;;;;;-4.49;100.00;102530.06;4998499;28;20050;-75
2023/02/11 01:32:59;;;;;;;43.13;23.83;;;;;;;-4.44;100.00;102529.59;5005157;28;20038;-76
2023/02/11 01:35:24;;;;;;;57.75;28.65;;;;;;;-4.85;100.00;102412.22;5002566;28;20045;-76
2023/02/11 01:37:50;;;;;;;50.25;29.27;;;;;;;-4.27;100.00;102511.56;5003288;28;20081;-75
2023/02/11 01:40:16;;;;;;;48.10;24.95;;;;;;;-4.14;100.00;102518.75;5005682;28;20064;-74
2023/02/11 01:42:42;;;;;;;44.80;24.95;;;;;;;-5.83;100.00;102273.41;5006963;28;20050;-77
2023/02/11 01:45:47;;;;;;;50.38;25.60;;;;;;;-4.46;100.00;102527.78;5003549;28;20037;-75
2023/02/11 01:48:21;;;;;;;54.50;26.88;;;;;;;-5.04;100.00;102371.22;5006259;28;20037;-73
2023/02/11 01:50:52;;;;;;;48.60;24.77;;;;;;;-4.53;100.00;102470.72;4993158;28;20436;-75
2023/02/11 01:58:52;;;;;;;54.90;26.33;;;;;;;-5.16;100.00;102381.19;5002484;28;20510;-74
2023/02/11 02:01:22;;;;;;;55.75;25.38;;;;;;;-4.58;100.00;102484.75;5005810;28;20132;-77
2023/02/11 02:03:53;;;;;;;46.08;25.63;;;;;;;-5.06;100.00;102406.00;5003359;28;20054;-73
2023/02/11 02:06:25;;;;;;;40.85;24.98;;;;;;;-4.58;100.00;102477.97;5003015;28;20046;-74
2023/02/11 02:09:04;;;;;;;43.72;23.55;;;;;;;-5.10;100.00;102363.88;5002762;28;20042;-77
2023/02/11 02:11:29;;;;;;;52.42;30.63;;;;;;;-4.36;100.00;102503.03;4992721;28;20073;-77
2023/02/11 02:13:55;;;;;;;49.72;25.55;;;;;;;-4.51;100.00;102493.16;5000063;28;20497;-74
2023/02/11 02:16:28;;;;;;;56.40;24.65;;;;;;;-5.08;100.00;102366.59;5000679;28;20122;-75
2023/02/11 02:19:12;;;;;;;46.60;25.60;;;;;;;-4.41;100.00;102509.38;5004891;28;20045;-75
2023/02/11 02:21:50;;;;;;;48.70;25.90;;;;;;;-5.49;100.00;102342.19;5018788;28;20445;-74
2023/02/11 02:24:37;;;;;;;50.67;24.73;;;;;;;-4.35;100.00;102512.53;4999103;28;20034;-76
2023/02/11 02:27:24;;;;;;;50.80;27.50;;;;;;;-4.57;100.00;102513.06;4999520;28;20042;-77
2023/02/11 02:29:58;;;;;;;39.97;24.65;;;;;;;-4.55;100.00;102515.78;4999666;28;20048;-74
2023/02/11 02:32:35;;;;;;;47.83;23.33;;;;;;;-4.39;100.00;102529.25;5002348;28;20065;-79
2023/02/11 02:35:18;;;;;;;46.60;26.75;;;;;;;-4.58;100.00;102510.38;5003017;28;20493;-76
2023/02/11 02:38:03;;;;;;;71.53;28.67;;;;;;;-4.47;100.00;102530.22;5001562;28;20124;-80
2023/02/11 02:40:38;;;;;;;59.95;26.45;;;;;;;-4.58;100.00;102480.53;5003501;28;20077;-75
2023/02/11 02:43:06;;;;;;;54.50;30.60;;;;;;;-4.63;100.00;102484.31;4998979;28;20046;-77
2023/02/11 02:45:32;;;;;;;37.10;22.75;;;;;;;-4.75;100.00;102471.25;4991558;28;20054;-74
2023/02/11 02:47:58;;;;;;;46.67;27.10;;;;;;;-5.23;100.00;102419.75;4999476;28;20088;-74
2023/02/11 02:50:30;;;;;;;54.35;27.15;;;;;;;-4.73;100.00;102515.84;5004368;28;20092;-74
2023/02/11 02:53:31;;;;;;;57.65;26.77;;;;;;;-4.86;100.00;102504.28;4999403;28;20050;-75
2023/02/11 02:56:08;;;;;;;48.25;25.98;;;;;;;-5.62;100.00;102398.91;5015483;28;20516;-77
2023/02/11 02:59:03;;;;;;;52.92;25.70;;;;;;;-5.73;100.00;102378.31;4994917;28;20050;-75
2023/02/11 03:01:46;;;;;;;46.38;25.45;;;;;;;-5.20;100.00;102414.03;4994069;28;20104;-76
2023/02/11 03:04:18;;;;;;;45.25;22.88;;;;;;;-4.59;100.00;102500.84;4999205;28;20490;-77
2023/02/11 03:06:56;;;;;;;46.17;25.58;;;;;;;-4.72;100.00;102512.50;5004109;28;20046;-73
2023/02/11 03:09:58;;;;;;;49.25;24.15;;;;;;;-4.52;100.00;102508.38;4997925;28;20061;-75
2023/02/11 03:12:29;;;;;;;56.10;24.63;;;;;;;-4.68;100.00;102494.13;4991606;28;20046;-73
2023/02/11 03:14:54;;;;;;;49.92;26.10;;;;;;;-4.61;100.00;102508.41;4996844;28;20110;-75
2023/02/11 03:17:22;;;;;;;56.05;24.35;;;;;;;-5.36;100.00;102380.94;5004521;28;20402;-75
2023/02/11 03:19:50;;;;;;;48.58;25.73;;;;;;;-5.61;100.00;102375.16;5002917;28;20418;-75
2023/02/11 03:22:24;;;;;;;50.00;22.60;;;;;;;-5.76;100.00;102332.03;5001669;28;20034;-75
2023/02/11 03:24:50;;;;;;;54.25;27.20;;;;;;;-5.53;100.00;102349.53;5000213;28;20609;-76
2023/02/11 03:27:36;;;;;;;54.03;28.35;;;;;;;-5.07;100.00;102449.38;5019096;28;20037;-73
2023/02/11 03:30:13;;;;;;;53.95;30.60;;;;;;;-5.00;100.00;102446.66;4990615;28;20104;-77
2023/02/11 03:32:45;;;;;;;49.08;26.35;;;;;;;-5.23;100.00;102436.75;4992760;28;20620;-74
2023/02/11 03:35:21;;;;;;;45.00;26.27;;;;;;;-6.02;100.00;102351.59;4997178;28;20056;-74
2023/02/11 03:38:20;;;;;;;49.22;23.42;;;;;;;-5.20;100.00;102489.13;5001807;28;20054;-73
2023/02/11 03:40:46;;;;;;;54.20;26.90;;;;;;;-5.31;100.00;102402.78;4992280;28;20182;-75
2023/02/11 03:43:19;;;;;;;59.28;29.63;;;;;;;-5.44;100.00;102381.88;4994526;28;20066;-77
2023/02/11 03:45:48;;;;;;;55.00;27.98;;;;;;;-5.13;100.00;102442.00;4992062;28;20060;-76
2023/02/11 03:48:17;;;;;;;46.80;23.88;;;;;;;-4.80;100.00;102479.25;4992345;28;20037;-75
2023/02/11 03:50:44;;;;;;;50.03;30.30;;;;;;;-5.83;100.00;102356.81;4998652;28;20030;-76
2023/02/11 03:53:13;;;;;;;43.58;25.30;;;;;;;-5.46;100.00;102484.03;4996149;28;20046;-79
2023/02/11 03:55:41;;;;;;;46.47;27.17;;;;;;;-5.15;100.00;102470.03;4995789;28;20041;-76
2023/02/11 03:58:07;;;;;;;56.85;26.88;;;;;;;-5.43;100.00;102478.31;4996588;28;20525;-77
2023/02/11 04:00:39;;;;;;;52.63;25.25;;;;;;;-5.22;100.00;102420.63;4995524;28;20513;-75
2023/02/11 04:03:06;;;;;;;51.13;25.05;;;;;;;-5.57;100.00;102350.03;4996370;28;20031;-75
2023/02/11 04:05:31;;;;;;;55.33;28.35;;;;;;;-4.93;100.00;102464.38;5003855;28;20050;-74
2023/02/11 04:07:57;;;;;;;54.53;27.08;;;;;;;-5.61;100.00;102353.03;4994586;28;20553;-77
2023/02/11 04:10:23;;;;;;;54.83;28.30;;;;;;;-5.95;100.00;102274.78;5001422;28;20097;-76
2023/02/11 04:12:48;;;;;;;50.15;25.48;;;;;;;-4.88;100.00;102470.84;4997411;28;20057;-76
2023/02/11 04:15:14;;;;;;;65.65;30.02;;;;;;;-4.94;100.00;102458.38;4995688;28;20049;-74
2023/02/11 04:17:39;;;;;;;53.25;28.13;;;;;;;-5.69;100.00;102323.25;5000590;28;20030;-78
2023/02/11 04:20:05;;;;;;;50.90;25.38;;;;;;;-5.60;100.00;102341.16;4997844;28;20070;-75
2023/02/11 04:22:31;;;;;;;45.10;26.48;;;;;;;-5.70;100.00;102344.47;5001329;28;20079;-74
2023/02/11 04:24:56;;;;;;;50.70;25.60;;;;;;;-5.95;100.00;102306.38;4998276;28;20041;-73
2023/02/11 04:27:22;;;;;;;54.88;28.35;;;;;;;-5.18;100.00;102462.03;5005769;28;20132;-73
2023/02/11 04:29:48;;;;;;;56.33;30.95;;;;;;;-5.90;100.00;102351.88;5007111;28;20089;-79
2023/02/11 04:32:14;;;;;;;43.85;22.45;;;;;;;-5.92;100.00;102351.75;5014997;28;20065;-75
2023/02/11 04:34:39;;;;;;;55.88;28.25;;;;;;;-6.03;100.00;102335.38;5003511;28;20139;-75
2023/02/11 04:37:05;;;;;;;54.08;28.75;;;;;;;-5.92;100.00;102333.84;5002276;28;20058;-74
2023/02/11 04:39:30;;;;;;;48.58;29.08;;;;;;;-6.12;100.00;102305.50;5005349;28;20101;-76
2023/02/11 04:41:56;;;;;;;47.15;25.98;;;;;;;-5.23;100.00;102444.44;4999278;28;20072;-76
2023/02/11 04:44:21;;;;;;;48.00;28.40;;;;;;;-6.09;100.00;102316.88;4996021;28;20078;-77
2023/02/11 04:46:47;;;;;;;48.95;26.98;;;;;;;-6.01;100.00;102351.78;5000046;28;20333;-75
2023/02/11 04:49:14;;;;;;;50.40;26.92;;;;;;;-5.16;100.00;102457.06;5008895;28;20073;-73
2023/02/11 04:51:41;;;;;;;59.45;27.98;;;;;;;-5.30;100.00;102461.75;5004128;28;20107;-75
2023/02/11 04:54:07;;;;;;;47.58;27.13;;;;;;;-5.91;100.00;102358.63;5001459;28;20041;-74
2023/02/11 04:56:32;;;;;;;42.90;25.25;;;;;;;-6.18;100.00;102347.56;5003657;28;20422;-75
2023/02/11 04:58:58;;;;;;;43.08;24.45;;;;;;;-6.07;100.00;102340.03;4996596;28;20046;-76
2023/02/11 05:01:23;;;;;;;56.33;31.45;;;;;;;-5.36;100.00;102453.50;5003927;28;20948;-76
2023/02/11 05:03:49;;;;;;;50.17;26.00;;;;;;;-5.63;100.00;102474.72;5000912;28;20490;-76
2023/02/11 05:06:16;;;;;;;47.83;22.92;;;;;;;-5.65;100.00;102470.22;5003087;28;20048;-75
2023/02/11 05:08:41;;;;;;;48.35;27.35;;;;;;;-5.46;100.00;102491.69;4998505;28;20045;-77
2023/02/11 05:11:13;;;;;;;49.50;25.73;;;;;;;-5.40;100.00;102492.31;4997915;28;20103;-76
2023/02/11 05:13:38;;;;;;;49.75;28.27;;;;;;;-5.61;100.00;102462.09;4998811;28;20056;-76
2023/02/11 05:16:04;;;;;;;55.40;28.98;;;;;;;-6.30;100.00;102341.22;5003095;28;20050;-76
2023/02/11 05:18:30;;;;;;;54.17;27.10;;;;;;;-6.06;100.00;102403.19;5007182;28;20129;-77
2023/02/11 05:20:55;;;;;;;53.53;26.35;;;;;;;-5.70;100.00;102464.63;5001724;28;20054;-76
2023/02/11 05:23:21;;;;;;;42.63;26.20;;;;;;;-5.44;100.00;102496.97;5001786;28;20077;-75
2023/02/11 05:25:46;;;;;;;51.67;28.90;;;;;;;-5.51;100.00;102503.16;5000819;28;20116;-75
2023/02/11 05:28:12;;;;;;;52.60;25.88;;;;;;;-6.42;100.00;102348.59;4994582;28;20529;-76
2023/02/11 05:30:37;;;;;;;54.10;26.88;;;;;;;-5.78;100.00;102473.22;5001143;28;20405;-75
2023/02/11 05:33:03;;;;;;;54.97;27.35;;;;;;;-5.67;100.00;102504.94;4998061;28;20470;-72
2023/02/11 05:35:28;;;;;;;49.50;26.63;;;;;;;-5.79;100.00;102512.31;4999594;28;20050;-74
2023/02/11 05:37:54;;;;;;;45.28;28.10;;;;;;;-6.32;100.00;102386.19;4997484;28;20065;-76
2023/02/11 05:40:21;;;;;;;47.47;25.92;;;;;;;-6.43;100.00;102358.66;4998393;28;20042;-74
2023/02/11 05:42:46;;;;;;;56.38;27.35;;;;;;;-6.03;100.00;102447.81;4999575;28;20054;-76
2023/02/11 05:45:11;;;;;;;54.17;29.02;;;;;;;-5.60;100.00;102492.00;4994280;28;20097;-76
2023/02/11 05:47:37;;;;;;;65.97;33.65;;;;;;;-6.39;100.00;102354.03;5003161;28;20122;-74
2023/02/11 05:50:03;;;;;;;54.92;27.88;;;;;;;-5.60;100.00;102484.34;5011225;28;20449;-75
2023/02/11 05:52:28;;;;;;;61.60;32.88;;;;;;;-5.92;100.00;102397.75;4997214;28;20049;-76
2023/02/11 05:54:53;;;;;;;74.65;36.85;;;;;;;-6.03;100.00;102426.47;5001471;28;20490;-77
2023/02/11 05:57:19;;;;;;;60.92;33.70;;;;;;;-6.08;100.00;102408.13;4998755;28;20259;-77
2023/02/11 05:59:44;;;;;;;59.92;32.42;;;;;;;-6.34;100.00;102371.44;5000639;28;20036;-75
2023/02/11 06:02:10;;;;;;;50.55;30.98;;;;;;;-5.28;100.00;102524.97;5003486;28;20200;-78
2023/02/11 06:04:36;;;;;;;53.35;27.95;;;;;;;-6.10;100.00;102367.88;5003199;28;20796;-79
2023/02/11 06:07:02;;;;;;;61.80;30.50;;;;;;;-5.17;100.00;102527.81;5004095;28;20049;-77
2023/02/11 06:09:28;;;;;;;57.00;31.13;;;;;;;-6.14;100.00;102363.19;4996780;28;20143;-77
2023/02/11 06:11:54;;;;;;;53.42;28.50;;;;;;;-5.49;100.00;102498.19;5002401;28;20438;-78
2023/02/11 06:14:19;;;;;;;73.40;35.55;;;;;;;-5.41;100.00;102487.97;4997791;28;20498;-79
2023/02/11 06:16:45;;;;;;;62.40;35.53;;;;;;;-6.31;100.00;102376.88;4999856;28;20151;-76
2023/02/11 06:19:11;;;;;;;65.35;33.35;;;;;;;-5.69;100.00;102509.91;5001540;28;20042;-78
2023/02/11 06:21:38;;;;;;;127.65;58.05;;;;;;;-5.29;100.00;102524.06;4999643;28;20123;-77
2023/02/11 06:24:05;;;;;;;111.75;49.80;;;;;;;-5.05;100.00;102517.88;5000340;28;20029;-77
2023/02/11 06:26:30;;;;;;;89.47;42.60;;;;;;;-5.87;100.00;102359.84;5004463;28;20030;-77
2023/02/11 06:28:59;;;;;;;88.57;44.60;;;;;;;-5.73;100.00;102362.09;4999254;28;20116;-78
2023/02/11 06:31:24;;;;;;;79.15;41.42;;;;;;;-5.15;100.00;102512.59;4998592;28;20054;-82
2023/02/11 06:33:50;;;;;;;87.85;37.50;;;;;;;-5.62;100.00;102412.63;5001252;28;20053;-78
2023/02/11 06:36:18;;;;;;;86.93;41.35;;;;;;;-5.91;100.00;102356.09;5002829;28;20517;-79
2023/02/11 06:38:44;;;;;;;71.35;34.78;;;;;;;-4.99;100.00;102484.25;4999048;28;20036;-78
2023/02/11 06:41:11;;;;;;;75.15;35.10;;;;;;;-5.64;100.00;102379.94;5003110;28;20057;-78
2023/02/11 06:43:37;;;;;;;58.40;31.52;;;;;;;-4.93;100.00;102513.03;4995576;28;20058;-77
2023/02/11 06:46:03;;;;;;;66.38;32.80;;;;;;;-4.86;100.00;102501.72;4997205;28;20086;-77
2023/02/11 06:48:28;;;;;;;65.50;35.38;;;;;;;-4.64;100.00;102514.91;4999135;28;20049;-77
2023/02/11 06:50:53;;;;;;;68.65;33.80;;;;;;;-4.72;100.00;102471.53;4995868;28;20037;-76
2023/02/11 06:53:19;;;;;;;61.78;32.60;;;;;;;-4.75;100.00;102513.91;4996411;28;20058;-75
2023/02/11 06:55:44;;;;;;;53.13;28.58;;;;;;;-5.14;100.00;102386.47;4997876;28;20518;-75
2023/02/11 06:58:10;;;;;;;67.50;33.95;;;;;;;-4.76;100.00;102483.91;4990935;28;20153;-76
2023/02/11 07:00:35;;;;;;;65.22;29.50;;;;;;;-4.76;100.00;102466.88;4997638;28;20042;-75
2023/02/11 07:03:01;;;;;;;62.72;35.20;;;;;;;-5.00;100.00;102386.09;4997388;28;20049;-78
2023/02/11 07:05:26;;;;;;;72.30;33.35;;;;;;;-4.04;100.00;102513.72;5004586;28;20069;-75
2023/02/11 07:07:52;;;;;;;52.92;30.55;;;;;;;-4.95;100.00;102364.41;5002535;28;20041;-74
2023/02/11 07:10:17;;;;;;;70.95;32.78;;;;;;;-4.05;100.00;102505.13;4999655;28;20415;-74
2023/02/11 07:12:43;;;;;;;64.85;36.13;;;;;;;-4.85;100.00;102340.56;4979699;28;24152;-77
2023/02/11 07:15:09;;;;;;;69.43;34.47;;;;;;;-4.47;100.00;102366.25;4967495;28;21749;-75
2023/02/11 07:17:35;;;;;;;65.18;30.92;;;;;;;-3.99;100.00;102466.31;4982143;28;20045;-77
2023/02/11 07:20:00;;;;;;;73.55;35.35;;;;;;;-3.75;100.00;102492.41;4985234;28;20100;-77
2023/02/11 07:22:26;;;;;;;60.10;32.60;;;;;;;-3.77;100.00;102466.63;4983005;28;20054;-76
2023/02/11 07:24:52;;;;;;;64.35;32.83;;;;;;;-3.63;100.00;102442.19;4982613;28;20464;-80
2023/02/11 07:27:17;;;;;;;64.95;34.38;;;;;;;-3.45;100.00;102490.03;4994615;28;21090;-78
2023/02/11 07:29:44;;;;;;;68.47;35.78;;;;;;;-4.30;100.00;102367.81;4983328;28;20156;-76
2023/02/11 07:32:10;;;;;;;72.47;33.38;;;;;;;-4.22;100.00;102332.59;4982637;28;20042;-77
2023/02/11 07:34:35;;;;;;;59.05;34.30;;;;;;;-3.55;100.00;102438.69;4983190;28;20072;-76
2023/02/11 07:37:01;;;;;;;64.70;31.75;;;;;;;-3.23;100.00;102459.50;4980891;28;20411;-77
2023/02/11 07:39:28;;;;;;;78.32;38.08;;;;;;;-3.59;100.00;102398.09;4983938;28;20120;-84
2023/02/11 07:41:54;;;;;;;52.92;30.77;;;;;;;-3.14;100.00;102503.03;4985699;28;20488;-80
2023/02/11 07:44:19;;;;;;;67.47;36.75;;;;;;;-3.69;100.00;102333.94;4980799;28;20058;-80
2023/02/11 07:46:46;;;;;;;73.50;38.30;;;;;;;-2.82;100.00;102485.34;4983155;28;20303;-75
2023/02/11 07:49:12;;;;;;;62.35;32.53;;;;;;;-3.17;100.00;102379.56;4983678;28;20057;-76
2023/02/11 07:51:37;;;;;;;66.60;31.58;;;;;;;-2.91;100.00;102450.25;4973472;28;20053;-79
2023/02/11 07:54:03;;;;;;;66.78;38.35;;;;;;;-3.45;100.00;102350.59;4981118;28;20036;-78
2023/02/11 07:56:29;;;;;;;64.10;33.25;;;;;;;-2.43;100.00;102501.53;4982367;28;20183;-78
2023/02/11 07:58:55;;;;;;;64.80;33.75;;;;;;;-2.93;100.00;102367.91;4987419;28;20054;-75
2023/02/11 08:01:27;;;;;;;56.42;34.35;;;;;;;-2.27;100.00;102486.66;4984307;28;20103;-81
2023/02/11 08:03:54;;;;;;;73.03;36.35;;;;;;;-2.19;100.00;102488.19;4987143;28;20054;-76
2023/02/11 08:06:21;;;;;;;81.25;38.45;;;;;;;-2.17;100.00;102478.94;5000595;28;22317;-75
2023/02/11 08:08:48;;;;;;;51.35;29.90;;;;;;;-1.99;100.00;102499.25;4982189;28;20042;-77
2023/02/11 08:11:22;;;;;;;81.75;35.00;;;;;;;-2.68;100.00;102355.50;4972534;28;20165;-78
2023/02/11 08:13:48;;;;;;;70.63;36.22;;;;;;;-2.50;100.00;102384.44;4973522;28;20153;-79
2023/02/11 08:16:20;;;;;;;56.67;31.23;;;;;;;-1.74;100.00;102522.78;4976505;28;20632;-76
2023/02/11 08:18:46;;;;;;;64.38;34.97;;;;;;;-1.56;100.00;102531.16;4992693;28;20049;-78
2023/02/11 08:21:12;;;;;;;61.80;32.45;;;;;;;-2.53;100.00;102384.16;5000444;28;20049;-73
2023/02/11 08:23:39;;;;;;;65.13;33.58;;;;;;;-1.64;100.00;102532.19;5000505;28;20038;-73
2023/02/11 08:26:09;;;;;;;73.75;37.35;;;;;;;-1.68;100.00;102502.72;4996047;28;20045;-77
2023/02/11 08:28:36;;;;;;;70.13;34.65;;;;;;;-2.27;100.00;102390.59;4997232;28;20121;-76
2023/02/11 08:31:06;;;;;;;67.72;34.58;;;;;;;-2.26;100.00;102365.03;4997189;28;20065;-76
2023/02/11 08:33:32;;;;;;;63.65;30.42;;;;;;;-1.41;100.00;102493.78;4993958;28;20402;-76
2023/02/11 08:35:57;;;;;;;64.55;34.05;;;;;;;-1.38;100.00;102519.81;4979293;28;20128;-76
2023/02/11 08:38:23;;;;;;;61.35;36.10;;;;;;;-1.35;100.00;102509.75;4973214;28;20084;-78
2023/02/11 08:40:48;;;;;;;50.42;30.52;;;;;;;-1.21;100.00;102510.88;4975547;28;20123;-75
2023/02/11 08:43:14;;;;;;;72.32;33.20;;;;;;;-1.75;100.00;102406.09;4983644;28;20085;-76
2023/02/11 08:45:39;;;;;;;67.82;36.78;;;;;;;-1.25;100.00;102542.31;4984706;28;20065;-75
2023/02/11 08:48:05;;;;;;;71.07;31.75;;;;;;;-1.84;100.00;102396.75;4989112;28;20121;-74
2023/02/11 08:50:31;;;;;;;63.47;36.38;;;;;;;-1.59;100.00;102459.75;4982947;28;20740;-76
2023/02/11 08:52:56;;;;;;;55.63;33.97;;;;;;;-0.78;100.00;102527.22;4975770;28;20578;-75
2023/02/11 08:55:22;;;;;;;63.05;35.90;;;;;;;-1.36;100.00;102386.03;4985272;28;20049;-76
2023/02/11 08:57:47;;;;;;;65.00;34.58;;;;;;;-0.42;100.00;102520.63;4996750;28;20133;-74
2023/02/11 09:00:14;;;;;;;68.57;37.22;;;;;;;-1.02;100.00;102411.91;4993722;28;20042;-75
2023/02/11 09:02:39;;;;;;;77.97;36.78;;;;;;;-1.37;100.00;102372.25;4992082;28;20053;-77
2023/02/11 09:05:05;;;;;;;66.50;36.38;;;;;;;-1.30;100.00;102386.53;4985135;28;20034;-77
2023/02/11 09:07:31;;;;;;;73.90;36.42;;;;;;;-0.97;100.00;102400.28;4982728;28;20141;-75
2023/02/11 09:09:56;;;;;;;74.70;37.10;;;;;;;-0.31;100.00;102514.59;4982147;28;20584;-79
2023/02/11 09:12:22;;;;;;;64.30;35.20;;;;;;;-0.17;100.00;102509.59;4975700;28;20057;-76
2023/02/11 09:14:47;;;;;;;64.40;38.67;;;;;;;-0.50;100.00;102511.34;4988119;28;20049;-74
2023/02/11 09:17:12;;;;;;;77.28;37.78;;;;;;;-0.44;100.00;102474.06;4999951;28;20026;-74
2023/02/11 09:19:38;;;;;;;59.33;33.72;;;;;;;-0.08;100.00;102477.66;4988926;28;20764;-76
2023/02/11 09:22:03;;;;;;;68.85;35.30;;;;;;;-0.30;100.00;102441.59;4993426;28;20486;-73
2023/02/11 09:24:29;;;;;;;77.53;38.97;;;;;;;-0.20;100.00;102499.97;4986935;28;20194;-75
2023/02/11 09:26:54;;;;;;;71.05;35.92;;;;;;;-0.29;100.00;102465.72;4989969;28;20050;-75
2023/02/11 09:29:20;;;;;;;63.22;38.15;;;;;;;-0.21;100.00;102480.13;4998562;28;22113;-76
2023/02/11 09:31:45;;;;;;;60.55;33.08;;;;;;;0.07;100.00;102496.03;4994925;28;20889;-76
2023/02/11 09:34:11;;;;;;;65.57;34.78;;;;;;;0.16;100.00;102483.81;4998233;28;20518;-76
2023/02/11 09:36:39;;;;;;;100.53;37.03;;;;;;;-0.29;100.00;102362.53;4988948;28;20043;-75
2023/02/11 09:39:10;;;;;;;62.63;33.60;;;;;;;-0.50;100.00;102324.03;4996510;28;20506;-75
2023/02/11 09:42:09;;;;;;;60.97;36.35;;;;;;;0.63;100.00;102470.94;5004956;28;20054;-77
2023/02/11 09:44:36;;;;;;;76.22;35.03;;;;;;;0.56;100.00;102440.31;4988593;28;20038;-78
2023/02/11 09:47:06;;;;;;;80.85;37.05;;;;;;;0.48;100.00;102468.91;4992315;28;20045;-76
2023/02/11 09:49:48;;;;;;;72.88;32.35;;;;;;;0.54;100.00;102415.13;4993640;28;20051;-75
2023/02/11 09:53:00;;;;;;;72.75;34.10;;;;;;;0.99;100.00;102445.09;4997748;28;20516;-76
2023/02/11 09:55:38;;;;;;;84.57;32.20;;;;;;;1.18;100.00;102435.25;4991713;28;20840;-78
2023/02/11 09:58:11;;;;;;;54.33;26.35;;;;;;;0.93;99.45;102409.34;4937394;28;1679401;-77
2023/02/11 10:00:43;;;;;;;52.05;29.42;;;;;;;1.27;98.31;102417.81;4990940;28;20056;-78
2023/02/11 10:03:38;;;;;;;50.70;26.98;;;;;;;1.37;97.38;102436.53;4993420;28;20049;-77
2023/02/11 10:06:35;;;;;;;47.17;26.60;;;;;;;1.26;98.57;102403.09;4984795;28;20052;-75
2023/02/11 10:09:19;;;;;;;53.25;26.38;;;;;;;1.40;98.95;102416.06;4983640;28;20058;-76
2023/02/11 10:12:03;;;;;;;58.88;30.90;;;;;;;1.11;99.75;102414.03;4976063;28;20054;-78
2023/02/11 10:14:37;;;;;;;;;;;;;;;1.22;100.00;102410.53;4973217;28;20042;-76
2023/02/11 10:17:15;;;;;;;42.90;25.27;;;;;;;0.58;100.00;102285.41;4994958;28;19924;-76
2023/02/11 10:19:46;;;;;;;67.65;26.70;;;;;;;1.71;100.00;102395.81;4990539;28;20057;-78
2023/02/11 10:22:26;;;;;;;56.22;26.83;;;;;;;1.44;100.00;102387.94;4997821;28;20042;-74
2023/02/11 10:24:58;;;;;;;44.58;23.73;;;;;;;1.61;100.00;102381.31;5003430;28;20061;-78
2023/02/11 10:27:31;;;;;;;49.63;26.33;;;;;;;1.48;100.00;102370.94;5015633;28;20123;-77
2023/02/11 10:30:19;;;;;;;53.30;28.73;;;;;;;1.08;100.00;102246.69;5003111;28;20046;-77
2023/02/11 10:32:58;;;;;;;40.13;26.63;;;;;;;1.59;100.00;102354.47;4996155;28;20398;-78
2023/02/11 10:35:25;;;;;;;42.25;25.42;;;;;;;1.98;100.00;102363.09;4996916;28;20045;-76
2023/02/11 10:37:52;;;;;;;39.33;25.40;;;;;;;2.14;100.00;102353.75;4991984;28;20038;-77
2023/02/11 10:40:27;;;;;;;52.30;27.48;;;;;;;1.75;100.00;102301.13;4983816;28;20105;-76
2023/02/11 10:42:56;;;;;;;48.65;28.02;;;;;;;0.77;100.00;102132.59;5005016;28;20434;-76
2023/02/11 10:45:38;;;;;;;47.47;26.02;;;;;;;2.22;100.00;102295.56;4991472;28;20064;-77
2023/02/11 10:48:05;;;;;;;55.50;30.55;;;;;;;2.68;100.00;102339.97;4995311;28;20095;-76
2023/02/11 10:50:33;;;;;;;57.55;29.33;;;;;;;2.07;95.78;102228.16;4998001;28;20041;-77
2023/02/11 10:53:22;;;;;;;56.85;26.00;;;;;;;2.10;100.00;102225.78;4994407;28;20042;-76
2023/02/11 10:55:56;;;;;;;51.95;26.38;;;;;;;3.10;97.09;102266.53;5001023;28;20042;-77
2023/02/11 10:58:26;;;;;;;;;;;;;;;3.61;94.58;102312.75;5005948;28;20076;-74
2023/02/11 11:00:54;;;;;;;51.83;24.63;;;;;;;2.56;86.45;102210.53;4996256;28;19929;-78
2023/02/11 11:03:24;;;;;;;47.22;26.65;;;;;;;2.73;86.64;102177.84;5002394;28;20057;-77
2023/02/11 11:06:11;;;;;;;48.47;25.38;;;;;;;2.36;85.05;102167.81;4999274;28;20053;-77
2023/02/11 11:08:49;;;;;;;45.42;27.02;;;;;;;3.62;81.35;102171.78;4999181;28;20129;-76
2023/02/11 11:11:21;;;;;;;45.60;23.35;;;;;;;4.01;76.79;102293.47;5000313;28;20046;-77
2023/02/11 11:13:58;;;;;;;37.65;23.48;;;;;;;4.67;70.42;102279.75;4996712;28;20038;-76
2023/02/11 11:16:31;;;;;;;43.88;25.33;;;;;;;4.91;67.95;102246.38;4992902;28;20061;-78
2023/02/11 11:19:06;;;;;;;41.13;25.30;;;;;;;5.40;66.23;102282.75;4998113;28;20145;-77